EmailTwitter


Surface observations / United Kingdom / EGHI (03865)

Regions: Quebec | Canada | USA | Europe | France | UK | Elsewhere
Station
Display
Info & Location for EGHI (03865) | Help decoding METAR

Weather Conditions observed on 2017/04/24 at 16:50 UTC at SOUTHAMPTON WX C, UK (EGHI)

Sky conditions: variable clouds.

Temperature: 12.0 Celsius.

Dewpoint: 4.0 Celsius.

Relative Humidity: 58%

Windchill Factor: 10.

Winds: Northwest at 20 km/h or 11 knots.

Mean Sea level Pressure: 101.30 kilopascals.

Horizontal visibility: 6.21 statute miles or 9.94 kilometers.

Coded METAR:

EGHI 241650Z 30011KT 260V350 9999 SCT042 12/04 Q1013=